createdAt,value
2022-07-29T00:00:14.610Z,54.30
2022-07-29T00:01:48.612Z,53.70
2022-07-29T00:03:20.431Z,54.70
2022-07-29T00:04:52.249Z,55.20
2022-07-29T00:06:23.925Z,55.10
2022-07-29T00:07:55.900Z,54.60
2022-07-29T00:09:27.612Z,54.40
2022-07-29T00:10:59.367Z,54.70
2022-07-29T00:12:31.145Z,54.30
2022-07-29T00:14:04.087Z,54.80
2022-07-29T00:15:36.023Z,55.40
2022-07-29T00:17:07.741Z,55.20
2022-07-29T00:18:40.323Z,55.50
2022-07-29T00:20:12.290Z,55.00
2022-07-29T00:21:44.007Z,54.80
2022-07-29T00:23:15.705Z,55.10
2022-07-29T00:24:51.643Z,54.40
2022-07-29T00:26:23.488Z,54.80
2022-07-29T00:27:55.204Z,54.30
2022-07-29T00:29:35.042Z,54.70
2022-07-29T00:31:07.165Z,55.10
2022-07-29T00:32:38.904Z,54.90
2022-07-29T00:34:30.676Z,55.10
2022-07-29T00:36:02.404Z,55.50
2022-07-29T00:37:34.193Z,55.40
2022-07-29T00:39:05.982Z,56.40
2022-07-29T00:40:37.935Z,56.00
2022-07-29T00:42:14.952Z,55.00
2022-07-29T00:43:46.829Z,55.40
2022-07-29T00:45:19.012Z,55.20
2022-07-29T00:46:51.421Z,55.10
2022-07-29T00:48:23.245Z,54.90
2022-07-29T00:49:58.364Z,55.20
2022-07-29T00:51:31.278Z,55.20
2022-07-29T00:53:04.914Z,55.70
2022-07-29T00:54:43.851Z,55.40
2022-07-29T00:56:16.464Z,54.90
2022-07-29T00:57:48.273Z,54.90
2022-07-29T00:59:20.397Z,55.40
2022-07-29T01:00:52.733Z,55.20
2022-07-29T01:02:24.653Z,54.70
2022-07-29T01:03:56.606Z,55.20
2022-07-29T01:05:50.361Z,56.00
2022-07-29T01:07:21.589Z,56.10
2022-07-29T01:08:57.468Z,56.50
2022-07-29T01:10:30.709Z,55.90
2022-07-29T01:12:03.506Z,55.80
2022-07-29T01:13:35.597Z,56.00
2022-07-29T01:15:09.303Z,55.80
2022-07-29T01:16:54.125Z,55.70
2022-07-29T01:18:33.165Z,55.20
2022-07-29T01:20:38.027Z,55.50
2022-07-29T01:22:34.442Z,55.00
2022-07-29T01:24:34.335Z,56.60
2022-07-29T01:26:24.231Z,56.20
2022-07-29T01:28:38.858Z,55.70
2022-07-29T01:30:11.316Z,56.30
2022-07-29T01:32:09.928Z,56.40
2022-07-29T01:34:05.150Z,56.80
2022-07-29T01:35:40.735Z,56.10
2022-07-29T01:37:23.254Z,56.90
2022-07-29T01:39:09.403Z,57.00
2022-07-29T01:40:48.855Z,56.80
2022-07-29T01:42:37.615Z,57.30
2022-07-29T01:44:20.823Z,56.60
2022-07-29T01:46:01.219Z,56.90
2022-07-29T01:47:39.774Z,57.10
2022-07-29T01:49:16.088Z,56.40
2022-07-29T01:50:51.417Z,56.60
2022-07-29T01:52:45.880Z,56.70
2022-07-29T01:54:25.709Z,56.60
2022-07-29T01:56:00.894Z,56.80
2022-07-29T01:57:35.903Z,57.00
2022-07-29T01:59:09.253Z,56.60
2022-07-29T02:00:44.113Z,56.10
2022-07-29T02:02:19.032Z,56.80
2022-07-29T02:03:53.474Z,56.30
2022-07-29T02:05:28.153Z,57.20
2022-07-29T02:07:06.605Z,57.50
2022-07-29T02:08:40.134Z,57.70
2022-07-29T02:10:13.237Z,57.70
2022-07-29T02:11:51.605Z,57.10
2022-07-29T02:13:25.751Z,57.90
2022-07-29T02:15:01.546Z,57.70
2022-07-29T02:16:36.068Z,57.70
2022-07-29T02:18:13.906Z,57.90
2022-07-29T02:19:46.214Z,58.60
2022-07-29T02:21:23.847Z,58.00
2022-07-29T02:22:59.579Z,58.20
2022-07-29T02:24:32.068Z,57.40
2022-07-29T02:26:04.204Z,58.40
2022-07-29T02:27:38.281Z,57.90
2022-07-29T02:29:12.890Z,58.60
2022-07-29T02:30:46.533Z,58.30
2022-07-29T02:32:19.628Z,57.90
2022-07-29T02:33:53.809Z,58.90
2022-07-29T02:35:26.401Z,57.80
2022-07-29T02:36:58.500Z,57.70
2022-07-29T02:38:50.457Z,57.70
2022-07-29T02:40:22.471Z,57.70
2022-07-29T02:42:02.540Z,57.70
2022-07-29T02:43:36.355Z,58.30
2022-07-29T02:45:09.001Z,58.30
2022-07-29T02:47:05.352Z,58.20
2022-07-29T02:49:00.563Z,57.50
2022-07-29T02:50:41.160Z,56.60
2022-07-29T02:52:35.740Z,57.90
2022-07-29T02:54:09.855Z,59.20
2022-07-29T02:55:52.901Z,58.10
2022-07-29T02:57:33.735Z,58.00
2022-07-29T02:59:10.026Z,58.10
2022-07-29T03:00:42.644Z,58.80
2022-07-29T03:02:18.787Z,58.80
2022-07-29T03:03:53.740Z,58.50
2022-07-29T03:05:26.574Z,59.00
2022-07-29T03:07:00.817Z,58.60
2022-07-29T03:08:33.836Z,58.20
2022-07-29T03:10:13.482Z,58.10
2022-07-29T03:11:50.064Z,58.10
2022-07-29T03:13:22.799Z,57.50
2022-07-29T03:14:55.095Z,58.60
2022-07-29T03:16:27.470Z,59.40
2022-07-29T03:17:59.584Z,58.80
2022-07-29T03:19:32.708Z,59.20
2022-07-29T03:21:05.369Z,59.20
2022-07-29T03:22:44.418Z,60.40
2022-07-29T03:24:45.736Z,61.30
2022-07-29T03:26:20.165Z,63.50
2022-07-29T03:27:52.372Z,62.90
2022-07-29T03:29:24.281Z,63.60
2022-07-29T03:30:56.406Z,64.00
2022-07-29T03:32:28.256Z,64.20
2022-07-29T03:33:59.989Z,64.10
2022-07-29T03:35:32.510Z,64.60
2022-07-29T03:37:04.686Z,64.50
2022-07-29T03:38:37.405Z,64.80
2022-07-29T03:40:11.369Z,65.00
2022-07-29T03:41:45.146Z,65.20
2022-07-29T03:43:18.335Z,66.00
2022-07-29T03:44:52.451Z,66.10
2022-07-29T03:46:27.335Z,66.60
2022-07-29T03:48:06.140Z,66.60
2022-07-29T03:49:40.131Z,66.80
2022-07-29T03:51:11.951Z,66.70
2022-07-29T03:52:45.427Z,67.30
2022-07-29T03:54:17.689Z,67.50
2022-07-29T03:55:54.680Z,67.20
2022-07-29T03:57:29.293Z,67.30
2022-07-29T03:59:03.208Z,67.70
2022-07-29T04:00:37.197Z,68.20
2022-07-29T04:02:11.899Z,68.50
2022-07-29T04:03:46.132Z,68.70
2022-07-29T04:05:18.742Z,69.10
2022-07-29T04:06:50.476Z,69.00
2022-07-29T04:08:22.168Z,69.00
2022-07-29T04:09:53.955Z,68.60
2022-07-29T04:11:25.721Z,68.90
2022-07-29T04:12:57.649Z,69.50
2022-07-29T04:14:30.224Z,69.10
2022-07-29T04:16:01.966Z,68.70
2022-07-29T04:17:34.079Z,68.60
2022-07-29T04:19:05.776Z,68.80
2022-07-29T04:20:37.491Z,69.00
2022-07-29T04:22:09.205Z,68.80
2022-07-29T04:23:52.910Z,69.20
2022-07-29T04:25:25.556Z,69.40
2022-07-29T04:26:57.377Z,69.00
2022-07-29T04:28:29.168Z,69.40
2022-07-29T04:30:00.897Z,69.40
2022-07-29T04:31:32.710Z,69.60
2022-07-29T04:33:06.724Z,69.80
2022-07-29T04:34:38.504Z,69.40
2022-07-29T04:36:28.373Z,69.30
2022-07-29T04:38:05.122Z,69.60
2022-07-29T04:39:36.843Z,69.80
2022-07-29T04:41:09.217Z,69.80
2022-07-29T04:42:46.779Z,69.40
2022-07-29T04:44:19.813Z,69.60
2022-07-29T04:45:51.789Z,69.20
2022-07-29T04:47:23.529Z,69.80
2022-07-29T04:48:55.435Z,70.10
2022-07-29T04:50:27.361Z,70.40
2022-07-29T04:51:59.136Z,70.00
2022-07-29T04:53:30.912Z,70.50
2022-07-29T04:55:03.727Z,70.70
2022-07-29T04:56:35.436Z,70.30
2022-07-29T04:58:08.325Z,70.30
2022-07-29T04:59:40.002Z,70.40
2022-07-29T05:01:11.827Z,70.40
2022-07-29T05:02:43.888Z,70.70
2022-07-29T05:04:15.928Z,70.90
2022-07-29T05:05:47.922Z,71.00
2022-07-29T05:07:19.932Z,71.20
2022-07-29T05:08:51.784Z,71.40
2022-07-29T05:10:23.680Z,71.60
2022-07-29T05:11:55.383Z,71.60
2022-07-29T05:13:27.084Z,71.70
2022-07-29T05:15:18.407Z,71.60
2022-07-29T05:16:51.953Z,71.70
2022-07-29T05:18:25.900Z,71.90
2022-07-29T05:19:58.005Z,71.30
2022-07-29T05:21:29.767Z,71.60
2022-07-29T05:23:02.397Z,71.30
2022-07-29T05:24:34.273Z,71.30
2022-07-29T05:26:06.024Z,71.40
2022-07-29T05:27:37.857Z,71.20
2022-07-29T05:29:44.918Z,71.10
2022-07-29T05:31:01.663Z,70.80
2022-07-29T05:32:33.458Z,71.60
2022-07-29T05:34:05.121Z,71.50
2022-07-29T05:35:37.966Z,71.90
2022-07-29T05:37:09.959Z,71.60
2022-07-29T05:38:41.681Z,71.50
2022-07-29T05:40:13.469Z,71.80
2022-07-29T05:41:48.828Z,72.10
2022-07-29T05:43:23.922Z,72.00
2022-07-29T05:44:56.110Z,71.80
2022-07-29T05:46:27.957Z,72.30
2022-07-29T05:47:59.692Z,72.40
2022-07-29T05:49:31.545Z,72.50
2022-07-29T05:51:03.430Z,72.60
2022-07-29T05:52:35.221Z,73.00
2022-07-29T05:54:07.057Z,72.40
2022-07-29T05:55:38.837Z,72.60
2022-07-29T05:57:22.101Z,73.00
2022-07-29T05:58:53.919Z,73.20
2022-07-29T06:00:25.695Z,73.00
2022-07-29T06:01:58.718Z,72.90
2022-07-29T06:03:31.138Z,72.60
2022-07-29T06:05:03.444Z,72.70
2022-07-29T06:06:35.851Z,73.00
2022-07-29T06:08:08.075Z,72.50
2022-07-29T06:09:40.092Z,72.90
2022-07-29T06:11:11.806Z,73.00
2022-07-29T06:12:43.515Z,73.40
2022-07-29T06:14:18.445Z,73.40
2022-07-29T06:15:50.464Z,73.30
2022-07-29T06:17:22.214Z,73.40
2022-07-29T06:18:53.930Z,73.60
2022-07-29T06:20:27.192Z,73.60
2022-07-29T06:21:59.338Z,73.30
2022-07-29T06:23:31.090Z,73.30
2022-07-29T06:25:04.534Z,74.00
2022-07-29T06:26:39.640Z,74.10
2022-07-29T06:28:11.925Z,74.20
2022-07-29T06:29:43.646Z,74.40
2022-07-29T06:31:15.410Z,74.50
2022-07-29T06:32:47.612Z,74.60
2022-07-29T06:34:20.455Z,74.90
2022-07-29T06:35:53.655Z,74.90
2022-07-29T06:37:26.901Z,74.50
2022-07-29T06:39:01.281Z,75.00
2022-07-29T06:40:53.977Z,75.30
2022-07-29T06:42:25.893Z,75.00
2022-07-29T06:43:57.585Z,75.10
2022-07-29T06:45:29.280Z,75.00
2022-07-29T06:47:01.735Z,75.00
2022-07-29T06:48:34.528Z,74.80
2022-07-29T06:50:07.785Z,74.60
2022-07-29T06:51:39.583Z,74.50
2022-07-29T06:53:11.292Z,74.70
2022-07-29T06:54:48.821Z,74.60
2022-07-29T06:56:20.500Z,74.70
2022-07-29T06:57:52.264Z,74.70
2022-07-29T06:59:33.538Z,74.50
2022-07-29T07:01:08.137Z,74.20
2022-07-29T07:02:39.961Z,74.70
2022-07-29T07:04:13.047Z,75.20
2022-07-29T07:05:46.004Z,75.30
2022-07-29T07:07:17.823Z,75.50
2022-07-29T07:08:49.804Z,75.30
2022-07-29T07:10:21.733Z,75.00
2022-07-29T07:11:58.749Z,75.30
2022-07-29T07:13:35.070Z,75.30
2022-07-29T07:15:08.887Z,75.20
2022-07-29T07:16:40.649Z,74.90
2022-07-29T07:18:12.528Z,74.60
2022-07-29T07:19:44.232Z,74.80
2022-07-29T07:21:19.253Z,75.20
2022-07-29T07:22:51.269Z,75.60
2022-07-29T07:24:22.988Z,75.30
2022-07-29T07:25:54.723Z,75.30
2022-07-29T07:27:27.513Z,75.40
2022-07-29T07:28:59.935Z,75.80
2022-07-29T07:30:31.990Z,75.50
2022-07-29T07:32:03.909Z,75.90
2022-07-29T07:33:35.667Z,76.10
2022-07-29T07:35:09.329Z,76.50
2022-07-29T07:36:41.113Z,75.90
2022-07-29T07:38:13.013Z,75.50
2022-07-29T07:39:44.696Z,75.50
2022-07-29T07:41:16.581Z,75.30
2022-07-29T07:42:48.292Z,75.90
2022-07-29T07:44:20.461Z,76.10
2022-07-29T07:45:52.436Z,76.30
2022-07-29T07:47:25.305Z,76.30
2022-07-29T07:48:59.759Z,76.20
2022-07-29T07:50:31.552Z,76.00
2022-07-29T07:52:03.673Z,76.50
2022-07-29T07:53:36.016Z,76.70
2022-07-29T07:55:08.214Z,76.60
2022-07-29T07:56:39.924Z,76.40
2022-07-29T07:58:11.674Z,76.50
2022-07-29T07:59:43.615Z,76.50
2022-07-29T08:01:15.437Z,76.50
2022-07-29T08:02:47.218Z,76.80
2022-07-29T08:04:22.217Z,76.40
2022-07-29T08:05:58.583Z,76.70
2022-07-29T08:07:30.487Z,77.10
2022-07-29T08:09:26.801Z,77.20
2022-07-29T08:10:57.150Z,76.60
2022-07-29T08:12:28.936Z,76.80
2022-07-29T08:14:02.230Z,76.90
2022-07-29T08:15:36.617Z,77.00
2022-07-29T08:17:08.328Z,77.00
2022-07-29T08:18:42.261Z,76.50
2022-07-29T08:20:13.953Z,77.20
2022-07-29T08:21:45.944Z,77.00
2022-07-29T08:23:19.857Z,77.10
2022-07-29T08:24:55.655Z,77.10
2022-07-29T08:26:27.473Z,76.60
2022-07-29T08:27:59.713Z,77.00
2022-07-29T08:29:31.398Z,77.00
2022-07-29T08:31:03.093Z,76.90
2022-07-29T08:32:53.182Z,76.70
2022-07-29T08:34:28.102Z,76.60
2022-07-29T08:36:00.419Z,76.40
2022-07-29T08:37:32.169Z,77.10
2022-07-29T08:39:04.689Z,77.00
2022-07-29T08:40:36.837Z,76.90
2022-07-29T08:42:08.685Z,76.90
2022-07-29T08:43:41.932Z,76.80
2022-07-29T08:45:13.873Z,76.70
2022-07-29T08:46:46.481Z,76.80
2022-07-29T08:48:24.008Z,76.30
2022-07-29T08:49:55.797Z,76.40
2022-07-29T08:51:28.838Z,76.50
2022-07-29T08:53:00.815Z,77.40
2022-07-29T08:54:32.918Z,77.80
2022-07-29T08:56:07.773Z,77.50
2022-07-29T08:57:51.009Z,77.30
2022-07-29T08:59:28.282Z,76.50
2022-07-29T09:01:04.222Z,76.50
2022-07-29T09:02:46.828Z,77.30
2022-07-29T09:04:20.877Z,77.40
2022-07-29T09:05:52.825Z,77.30
2022-07-29T09:07:24.549Z,76.40
2022-07-29T09:09:08.223Z,76.50
2022-07-29T09:10:40.538Z,77.00
2022-07-29T09:12:12.810Z,76.50
2022-07-29T09:14:00.760Z,78.00
2022-07-29T09:15:32.802Z,76.80
2022-07-29T09:17:04.972Z,77.00
2022-07-29T09:18:38.251Z,78.20
2022-07-29T09:20:19.299Z,76.30
2022-07-29T09:22:00.065Z,76.10
2022-07-29T09:23:31.896Z,76.50
2022-07-29T09:25:04.068Z,76.20
2022-07-29T09:26:47.778Z,76.80
2022-07-29T09:28:19.510Z,75.30
2022-07-29T09:30:01.422Z,75.50
2022-07-29T09:31:35.523Z,75.60
2022-07-29T09:33:07.287Z,75.70
2022-07-29T09:34:39.048Z,76.30
2022-07-29T09:36:12.280Z,76.00
2022-07-29T09:37:45.438Z,76.10
2022-07-29T09:39:31.236Z,76.60
2022-07-29T09:41:05.771Z,76.10
2022-07-29T09:42:38.265Z,76.10
2022-07-29T09:44:10.251Z,76.50
2022-07-29T09:45:42.063Z,77.20
2022-07-29T09:47:14.768Z,76.10
2022-07-29T09:49:06.423Z,76.30
2022-07-29T09:50:42.402Z,76.20
2022-07-29T09:52:14.135Z,75.50
2022-07-29T09:53:45.873Z,75.70
2022-07-29T09:55:18.584Z,75.90
2022-07-29T09:56:53.119Z,75.70
2022-07-29T09:58:25.160Z,75.10
2022-07-29T10:00:01.713Z,75.10
2022-07-29T10:01:44.017Z,75.10
2022-07-29T10:03:17.267Z,74.60
2022-07-29T10:04:49.546Z,74.00
2022-07-29T10:06:21.340Z,74.90
2022-07-29T10:07:59.250Z,74.30
2022-07-29T10:09:31.414Z,74.00
2022-07-29T10:11:19.958Z,74.20
2022-07-29T10:13:01.850Z,73.50
2022-07-29T10:14:39.475Z,74.20
2022-07-29T10:16:12.174Z,73.80
2022-07-29T10:17:46.462Z,74.00
2022-07-29T10:19:18.177Z,73.60
2022-07-29T10:20:50.507Z,74.10
2022-07-29T10:22:51.555Z,74.00
2022-07-29T10:24:15.291Z,74.00
2022-07-29T10:25:47.302Z,73.20
2022-07-29T10:27:19.035Z,72.60
2022-07-29T10:28:50.754Z,72.40
2022-07-29T10:30:24.728Z,72.30
2022-07-29T10:32:05.652Z,72.30
2022-07-29T10:34:05.947Z,71.30
2022-07-29T10:36:09.334Z,71.10
2022-07-29T10:37:45.907Z,71.00
2022-07-29T10:39:51.138Z,71.90
2022-07-29T10:41:44.378Z,71.90
2022-07-29T10:43:28.255Z,71.80
2022-07-29T10:45:04.641Z,71.20
2022-07-29T10:46:39.118Z,71.30
2022-07-29T10:48:13.097Z,72.40
2022-07-29T10:50:01.542Z,73.10
2022-07-29T10:51:51.764Z,72.10
2022-07-29T10:53:24.904Z,72.60
2022-07-29T10:54:59.486Z,72.60
2022-07-29T10:56:34.591Z,72.90
2022-07-29T10:58:15.382Z,71.90
2022-07-29T11:00:10.010Z,71.70
2022-07-29T11:01:46.436Z,71.50
2022-07-29T11:03:49.156Z,71.60
2022-07-29T11:05:22.055Z,71.70
2022-07-29T11:07:05.605Z,71.40
2022-07-29T11:08:37.438Z,71.60
2022-07-29T11:10:15.205Z,71.90
2022-07-29T11:11:51.556Z,72.50
2022-07-29T11:13:49.358Z,72.00
2022-07-29T11:15:24.858Z,71.60
2022-07-29T11:17:03.453Z,71.00
2022-07-29T11:19:13.785Z,71.00
2022-07-29T11:20:49.913Z,72.30
2022-07-29T11:22:36.260Z,72.10
2022-07-29T11:24:28.805Z,72.00
2022-07-29T11:26:24.533Z,73.30
2022-07-29T11:28:11.896Z,73.50
2022-07-29T11:29:53.505Z,73.40
2022-07-29T11:31:37.298Z,73.00
2022-07-29T11:33:54.025Z,73.60
2022-07-29T11:37:18.750Z,73.50
2022-07-29T11:38:51.841Z,74.00
2022-07-29T11:40:23.889Z,74.20
2022-07-29T11:42:35.792Z,74.40
2022-07-29T11:44:13.676Z,73.70
2022-07-29T11:45:49.955Z,72.90
2022-07-29T11:47:22.957Z,73.10
2022-07-29T11:48:56.598Z,73.60
2022-07-29T11:50:31.832Z,72.90
2022-07-29T11:52:05.605Z,73.70
2022-07-29T11:53:37.461Z,74.10
2022-07-29T11:55:11.269Z,73.10
2022-07-29T11:56:47.154Z,72.40
2022-07-29T11:58:29.323Z,71.80
2022-07-29T12:00:09.410Z,72.00
2022-07-29T12:02:06.654Z,72.20
2022-07-29T12:03:45.665Z,72.80
2022-07-29T12:05:35.811Z,73.20
2022-07-29T12:07:08.829Z,73.20
2022-07-29T12:08:44.951Z,72.50
2022-07-29T12:10:19.860Z,72.20
2022-07-29T12:12:05.379Z,72.10
2022-07-29T12:13:40.777Z,72.40
2022-07-29T12:15:18.830Z,72.20
2022-07-29T12:16:52.225Z,72.00
2022-07-29T12:18:24.992Z,71.80
2022-07-29T12:19:58.143Z,71.60
2022-07-29T12:21:52.360Z,71.60
2022-07-29T12:23:29.500Z,72.30
2022-07-29T12:25:32.621Z,72.00
2022-07-29T12:27:05.167Z,71.20
2022-07-29T12:28:40.475Z,71.70
2022-07-29T12:30:17.430Z,70.70
2022-07-29T12:31:54.849Z,70.20
2022-07-29T12:33:30.468Z,70.20
2022-07-29T12:35:21.967Z,70.20
2022-07-29T12:36:53.896Z,70.20
2022-07-29T12:38:26.374Z,69.90
2022-07-29T12:39:58.294Z,70.10
2022-07-29T12:41:30.706Z,70.20
2022-07-29T12:43:10.580Z,70.90
2022-07-29T12:44:50.670Z,70.30
2022-07-29T12:46:22.667Z,70.60
2022-07-29T12:47:54.521Z,71.20
2022-07-29T12:49:26.291Z,72.20
2022-07-29T12:51:01.124Z,72.00
2022-07-29T12:52:34.950Z,71.40
2022-07-29T12:54:12.321Z,71.00
2022-07-29T12:55:51.867Z,71.50
2022-07-29T12:57:24.768Z,72.30
2022-07-29T12:58:56.512Z,72.70
2022-07-29T13:00:28.297Z,72.20
2022-07-29T13:02:00.948Z,71.80
2022-07-29T13:03:57.485Z,72.20
2022-07-29T13:05:49.414Z,73.00
2022-07-29T13:07:55.851Z,73.20
2022-07-29T13:09:24.859Z,74.00
2022-07-29T13:10:56.684Z,73.90
2022-07-29T13:12:28.760Z,73.60
2022-07-29T13:14:05.970Z,73.40
2022-07-29T13:16:08.792Z,73.60
2022-07-29T13:17:44.417Z,73.00
2022-07-29T13:19:19.845Z,73.70
2022-07-29T13:20:51.723Z,73.20
2022-07-29T13:22:25.236Z,72.80
2022-07-29T13:23:57.004Z,72.50
2022-07-29T13:25:31.317Z,72.80
2022-07-29T13:27:05.813Z,73.60
2022-07-29T13:28:38.024Z,74.30
2022-07-29T13:30:11.515Z,74.00
2022-07-29T13:31:43.213Z,73.90
2022-07-29T13:33:15.320Z,73.90
2022-07-29T13:34:47.308Z,73.40
2022-07-29T13:36:19.032Z,72.90
2022-07-29T13:37:51.979Z,73.00
2022-07-29T13:39:23.764Z,73.30
2022-07-29T13:40:55.569Z,72.90
2022-07-29T13:42:28.560Z,72.80
2022-07-29T13:44:00.305Z,72.80
2022-07-29T13:45:32.110Z,72.90
2022-07-29T13:47:03.841Z,72.60
2022-07-29T13:48:35.623Z,72.90
2022-07-29T13:50:10.708Z,72.90
2022-07-29T13:51:42.441Z,72.40
2022-07-29T13:53:17.486Z,72.30
2022-07-29T13:54:50.017Z,71.80
2022-07-29T13:56:21.723Z,72.60
2022-07-29T13:57:53.467Z,72.50
2022-07-29T13:59:25.171Z,72.40
2022-07-29T14:00:57.905Z,72.20
2022-07-29T14:02:29.678Z,72.10
2022-07-29T14:04:01.790Z,71.40
2022-07-29T14:05:33.502Z,71.60
2022-07-29T14:07:05.378Z,71.70
2022-07-29T14:08:37.552Z,71.30
2022-07-29T14:10:09.739Z,70.70
2022-07-29T14:11:41.679Z,70.60
2022-07-29T14:13:25.282Z,70.80
2022-07-29T14:14:58.027Z,70.70
2022-07-29T14:16:29.767Z,70.80
2022-07-29T14:18:02.410Z,70.70
2022-07-29T14:19:38.745Z,70.60
2022-07-29T14:21:10.740Z,69.90
2022-07-29T14:22:45.036Z,70.00
2022-07-29T14:24:17.784Z,69.60
2022-07-29T14:25:49.897Z,69.70
2022-07-29T14:27:38.038Z,69.20
2022-07-29T14:29:10.286Z,69.30
2022-07-29T14:30:42.005Z,68.90
2022-07-29T14:32:15.728Z,68.90
2022-07-29T14:33:49.270Z,69.20
2022-07-29T14:35:21.230Z,69.40
2022-07-29T14:36:56.327Z,68.80
2022-07-29T14:38:28.059Z,68.70
2022-07-29T14:40:03.523Z,68.70
2022-07-29T14:41:35.308Z,68.20
2022-07-29T14:43:07.096Z,67.80
2022-07-29T14:44:38.841Z,67.90
2022-07-29T14:46:10.636Z,67.70
2022-07-29T14:47:42.344Z,67.20
2022-07-29T14:49:14.154Z,68.00
2022-07-29T14:50:45.956Z,67.60
2022-07-29T14:52:17.661Z,67.50
2022-07-29T14:53:49.481Z,67.20
2022-07-29T14:55:21.281Z,67.20
2022-07-29T14:56:56.068Z,67.40
2022-07-29T14:58:27.788Z,67.30
2022-07-29T14:59:59.540Z,66.90
2022-07-29T15:01:31.381Z,66.80
2022-07-29T15:03:03.674Z,67.00
2022-07-29T15:04:35.478Z,66.90
2022-07-29T15:06:07.920Z,66.20
2022-07-29T15:07:39.859Z,65.80
2022-07-29T15:09:11.630Z,66.40
2022-07-29T15:10:43.483Z,65.90
2022-07-29T15:12:15.187Z,66.30
2022-07-29T15:13:47.207Z,66.40
2022-07-29T15:15:18.982Z,66.10
2022-07-29T15:16:52.756Z,65.90
2022-07-29T15:18:25.336Z,66.30
2022-07-29T15:19:57.569Z,66.00
2022-07-29T15:21:29.349Z,66.20
2022-07-29T15:23:01.057Z,66.20
2022-07-29T15:24:32.847Z,66.30
2022-07-29T15:26:05.703Z,65.90
2022-07-29T15:27:37.464Z,66.00
2022-07-29T15:29:09.449Z,65.40
2022-07-29T15:30:41.819Z,66.40
2022-07-29T15:32:13.757Z,66.00
2022-07-29T15:33:48.513Z,65.60
2022-07-29T15:35:20.230Z,65.80
2022-07-29T15:36:53.301Z,65.40
2022-07-29T15:38:28.922Z,65.40
2022-07-29T15:40:00.846Z,65.30
2022-07-29T15:41:33.537Z,64.70
2022-07-29T15:43:06.655Z,64.40
2022-07-29T15:44:38.600Z,64.70
2022-07-29T15:46:32.721Z,65.00
2022-07-29T15:48:07.376Z,64.70
2022-07-29T15:49:47.289Z,65.10
2022-07-29T15:51:20.960Z,65.40
2022-07-29T15:52:52.645Z,65.50
2022-07-29T15:54:24.324Z,64.90
2022-07-29T15:55:55.989Z,65.20
2022-07-29T15:57:27.660Z,65.00
2022-07-29T15:58:59.809Z,65.30
2022-07-29T16:00:33.760Z,64.60
2022-07-29T16:02:06.401Z,65.10
2022-07-29T16:03:40.116Z,65.40
2022-07-29T16:05:14.892Z,64.60
2022-07-29T16:06:47.771Z,64.70
2022-07-29T16:08:19.474Z,65.00
2022-07-29T16:09:53.347Z,64.70
2022-07-29T16:11:25.185Z,64.40
2022-07-29T16:12:56.952Z,64.70
2022-07-29T16:14:28.757Z,64.60
2022-07-29T16:16:02.629Z,64.70
2022-07-29T16:17:34.828Z,64.90
2022-07-29T16:19:07.234Z,64.90
2022-07-29T16:20:38.930Z,64.70
2022-07-29T16:22:10.816Z,64.50
2022-07-29T16:23:42.632Z,64.50
2022-07-29T16:25:14.461Z,64.60
2022-07-29T16:26:46.193Z,64.30
2022-07-29T16:28:18.516Z,64.20
2022-07-29T16:29:50.443Z,64.40
2022-07-29T16:31:23.173Z,64.70
2022-07-29T16:32:54.878Z,64.20
2022-07-29T16:34:26.640Z,63.90
2022-07-29T16:35:58.415Z,64.10
2022-07-29T16:37:33.620Z,64.00
2022-07-29T16:39:05.646Z,64.10
2022-07-29T16:40:37.643Z,63.60
2022-07-29T16:42:09.949Z,63.80
2022-07-29T16:43:43.324Z,63.40
2022-07-29T16:45:16.613Z,63.50
2022-07-29T16:46:49.811Z,63.50
2022-07-29T16:48:21.739Z,63.20
2022-07-29T16:49:55.099Z,63.00
2022-07-29T16:51:26.991Z,63.10
2022-07-29T16:52:59.787Z,63.50
2022-07-29T16:54:31.477Z,63.40
2022-07-29T16:56:03.343Z,62.80
2022-07-29T16:57:35.020Z,62.90
2022-07-29T16:59:06.771Z,63.60
2022-07-29T17:00:39.415Z,63.40
2022-07-29T17:02:11.983Z,63.60
2022-07-29T17:04:02.333Z,63.50
2022-07-29T17:05:50.479Z,62.70
2022-07-29T17:07:25.620Z,62.70
2022-07-29T17:08:57.486Z,62.30
2022-07-29T17:10:29.876Z,62.90
2022-07-29T17:12:04.589Z,63.00
2022-07-29T17:13:36.334Z,63.10
2022-07-29T17:15:10.603Z,62.80
2022-07-29T17:16:42.369Z,62.80
2022-07-29T17:18:23.280Z,62.50
2022-07-29T17:19:57.469Z,62.80
2022-07-29T17:21:29.741Z,62.80
2022-07-29T17:23:01.468Z,62.60
2022-07-29T17:24:36.545Z,63.40
2022-07-29T17:26:10.077Z,63.00
2022-07-29T17:27:42.425Z,62.50
2022-07-29T17:29:15.924Z,63.40
2022-07-29T17:30:47.636Z,62.80
2022-07-29T17:32:19.365Z,63.00
2022-07-29T17:33:51.115Z,62.90
2022-07-29T17:35:41.656Z,63.20
2022-07-29T17:37:13.358Z,63.10
2022-07-29T17:38:45.348Z,63.40
2022-07-29T17:40:17.189Z,63.20
2022-07-29T17:41:48.890Z,63.00
2022-07-29T17:43:20.669Z,62.80
2022-07-29T17:44:52.429Z,62.80
2022-07-29T17:46:27.042Z,63.20
2022-07-29T17:47:58.808Z,63.20
2022-07-29T17:49:30.601Z,63.30
2022-07-29T17:51:03.288Z,63.20
2022-07-29T17:52:35.506Z,63.00
2022-07-29T17:54:09.010Z,63.30
2022-07-29T17:55:40.718Z,62.60
2022-07-29T17:57:12.407Z,61.80
2022-07-29T17:58:44.218Z,62.30
2022-07-29T18:00:16.165Z,62.30
2022-07-29T18:01:47.952Z,61.80
2022-07-29T18:03:20.054Z,61.60
2022-07-29T18:04:51.846Z,62.10
2022-07-29T18:06:23.562Z,61.40
2022-07-29T18:07:58.806Z,61.00
2022-07-29T18:09:30.635Z,61.50
2022-07-29T18:11:02.687Z,61.20
2022-07-29T18:12:34.466Z,62.40
2022-07-29T18:14:06.798Z,62.30
2022-07-29T18:15:39.923Z,61.70
2022-07-29T18:17:11.595Z,61.70
2022-07-29T18:18:44.936Z,61.40
2022-07-29T18:20:16.686Z,61.50
2022-07-29T18:21:54.415Z,61.60
2022-07-29T18:23:27.266Z,60.70
2022-07-29T18:24:59.275Z,60.70
2022-07-29T18:26:30.979Z,60.90
2022-07-29T18:28:03.835Z,60.50
2022-07-29T18:29:35.634Z,60.50
2022-07-29T18:31:07.382Z,60.40
2022-07-29T18:32:39.075Z,60.60
2022-07-29T18:34:10.779Z,60.80
2022-07-29T18:35:46.529Z,60.50
2022-07-29T18:37:18.437Z,60.30
2022-07-29T18:39:10.182Z,60.20
2022-07-29T18:40:48.354Z,61.00
2022-07-29T18:42:20.182Z,60.10
2022-07-29T18:43:51.878Z,60.10
2022-07-29T18:45:28.511Z,59.60
2022-07-29T18:47:01.159Z,59.50
2022-07-29T18:48:34.278Z,60.10
2022-07-29T18:50:07.090Z,60.40
2022-07-29T18:51:42.374Z,60.70
2022-07-29T18:53:14.133Z,61.30
2022-07-29T18:54:45.865Z,61.00
2022-07-29T18:56:19.023Z,60.50
2022-07-29T18:57:55.337Z,61.30
2022-07-29T18:59:30.317Z,62.10
2022-07-29T19:01:02.162Z,62.00
2022-07-29T19:02:34.040Z,61.70
2022-07-29T19:04:05.815Z,61.60
2022-07-29T19:05:37.527Z,61.40
2022-07-29T19:07:09.258Z,61.30
2022-07-29T19:08:41.704Z,62.00
2022-07-29T19:10:13.559Z,63.10
2022-07-29T19:11:45.363Z,63.70
2022-07-29T19:13:17.118Z,61.20
2022-07-29T19:14:48.831Z,62.20
2022-07-29T19:16:22.890Z,62.90
2022-07-29T19:17:59.038Z,63.70
2022-07-29T19:19:32.639Z,64.10
2022-07-29T19:21:04.383Z,64.60
2022-07-29T19:22:36.162Z,65.20
2022-07-29T19:24:12.347Z,64.40
2022-07-29T19:25:53.208Z,64.60
2022-07-29T19:27:25.963Z,64.10
2022-07-29T19:28:57.746Z,64.10
2022-07-29T19:30:29.747Z,63.70
2022-07-29T19:32:01.615Z,63.50
2022-07-29T19:33:34.060Z,63.40
2022-07-29T19:35:24.140Z,63.90
2022-07-29T19:36:56.133Z,64.20
2022-07-29T19:38:28.031Z,63.80
2022-07-29T19:39:59.707Z,64.20
2022-07-29T19:41:31.541Z,64.40
2022-07-29T19:43:03.418Z,63.90
2022-07-29T19:44:57.182Z,64.40
2022-07-29T19:46:29.151Z,64.70
2022-07-29T19:48:02.670Z,64.70
2022-07-29T19:49:37.259Z,65.00
2022-07-29T19:51:08.977Z,65.10
2022-07-29T19:52:40.771Z,65.20
2022-07-29T19:54:12.568Z,65.60
2022-07-29T19:55:44.294Z,65.10
2022-07-29T19:57:16.404Z,65.10
2022-07-29T19:58:48.240Z,65.00
2022-07-29T20:00:21.091Z,65.00
2022-07-29T20:01:52.957Z,65.30
2022-07-29T20:03:24.772Z,64.90
2022-07-29T20:04:56.609Z,65.60
2022-07-29T20:06:31.354Z,64.90
2022-07-29T20:08:04.757Z,65.20
2022-07-29T20:09:36.627Z,65.40
2022-07-29T20:11:08.415Z,65.40
2022-07-29T20:12:42.463Z,65.60
2022-07-29T20:14:14.213Z,65.50
2022-07-29T20:15:47.362Z,65.40
2022-07-29T20:17:19.422Z,65.70
2022-07-29T20:18:51.147Z,65.30
2022-07-29T20:20:23.576Z,65.70
2022-07-29T20:21:55.381Z,65.60
2022-07-29T20:23:27.505Z,66.50
2022-07-29T20:25:06.524Z,66.00
2022-07-29T20:26:38.566Z,65.90